createdAt,value
2022-12-24T00:01:22.155Z,100893.75
2022-12-24T00:03:50.979Z,100897.25
2022-12-24T00:06:25.214Z,100898.09
2022-12-24T00:08:53.204Z,100895.53
2022-12-24T00:11:21.070Z,100905.09
2022-12-24T00:13:49.511Z,100907.72
2022-12-24T00:16:17.062Z,100900.75
2022-12-24T00:18:46.652Z,100894.66
2022-12-24T00:21:16.089Z,100900.78
2022-12-24T00:23:43.973Z,100904.28
2022-12-24T00:26:12.350Z,100886.81
2022-12-24T00:28:41.168Z,100890.25
2022-12-24T00:31:18.294Z,100887.53
2022-12-24T00:33:46.885Z,100886.75
2022-12-24T00:36:14.377Z,100892.78
2022-12-24T00:38:42.601Z,100886.78
2022-12-24T00:41:26.513Z,100890.28
2022-12-24T00:43:56.567Z,100899.00
2022-12-24T00:46:26.141Z,100896.44
2022-12-24T00:48:54.043Z,100893.00
2022-12-24T00:51:22.668Z,100897.31
2022-12-24T00:53:51.896Z,100901.66
2022-12-24T00:56:19.991Z,100902.59
2022-12-24T00:58:47.536Z,100902.50
2022-12-24T01:01:15.276Z,100893.78
2022-12-24T01:03:43.103Z,100895.53
2022-12-24T01:06:14.032Z,100886.88
2022-12-24T01:08:42.019Z,100879.03
2022-12-24T01:11:11.465Z,100878.16
2022-12-24T01:13:40.036Z,100876.34
2022-12-24T01:16:16.619Z,100875.44
2022-12-24T01:18:44.328Z,100863.22
2022-12-24T01:21:11.895Z,100877.09
2022-12-24T01:23:39.428Z,100870.22
2022-12-24T01:26:07.028Z,100859.75
2022-12-24T01:28:34.892Z,100868.50
2022-12-24T01:31:02.376Z,100858.91
2022-12-24T01:33:30.339Z,100861.56
2022-12-24T01:35:57.858Z,100871.09
2022-12-24T01:38:25.356Z,100866.78
2022-12-24T01:41:11.162Z,100871.16
2022-12-24T01:43:38.566Z,100859.84
2022-12-24T01:46:17.559Z,100864.16
2022-12-24T01:48:57.359Z,100872.00
2022-12-24T01:51:33.907Z,100874.63
2022-12-24T01:54:24.497Z,100876.41
2022-12-24T01:57:01.428Z,100865.91
2022-12-24T01:59:30.000Z,100867.59
2022-12-24T02:01:57.697Z,100868.50
2022-12-24T02:04:54.201Z,100867.69
2022-12-24T02:07:22.188Z,100871.19
2022-12-24T02:09:53.967Z,100865.94
2022-12-24T02:12:21.730Z,100866.81
2022-12-24T02:14:49.365Z,100865.09
2022-12-24T02:17:19.624Z,100870.34
2022-12-24T02:20:05.345Z,100879.03
2022-12-24T02:22:54.638Z,100881.66
2022-12-24T02:25:28.003Z,100891.25
2022-12-24T02:28:00.434Z,100893.91
2022-12-24T02:30:37.139Z,100891.34
2022-12-24T02:33:34.963Z,100900.88
2022-12-24T02:36:10.366Z,100902.63
2022-12-24T02:38:47.461Z,100906.19
2022-12-24T02:41:23.571Z,100920.16
2022-12-24T02:43:55.061Z,100906.19
2022-12-24T02:46:28.037Z,100917.56
2022-12-24T02:48:58.740Z,100916.59
2022-12-24T02:51:26.204Z,100928.78
2022-12-24T02:53:53.736Z,100926.25
2022-12-24T02:56:52.338Z,100934.09
2022-12-24T02:59:31.860Z,100923.66
2022-12-24T03:02:19.691Z,100934.13
2022-12-24T03:04:50.080Z,100935.88
2022-12-24T03:07:29.644Z,100938.47
2022-12-24T03:10:27.283Z,100934.97
2022-12-24T03:12:58.713Z,100936.72
2022-12-24T03:15:27.643Z,100955.03
2022-12-24T03:18:00.428Z,100956.75
2022-12-24T03:20:36.297Z,100964.63
2022-12-24T03:23:04.870Z,100948.00
2022-12-24T03:25:35.155Z,100951.50
2022-12-24T03:28:06.547Z,100943.72
2022-12-24T03:30:34.828Z,100938.38
2022-12-24T03:33:02.346Z,100945.41
2022-12-24T03:35:29.849Z,100932.34
2022-12-24T03:37:57.492Z,100938.41
2022-12-24T03:40:25.270Z,100943.66
2022-12-24T03:42:52.784Z,100939.25
2022-12-24T03:45:20.337Z,100943.66
2022-12-24T03:47:47.689Z,100945.38
2022-12-24T03:50:15.145Z,100934.09
2022-12-24T03:52:42.537Z,100939.28
2022-12-24T03:55:10.339Z,100942.78
2022-12-24T03:57:37.823Z,100937.50
2022-12-24T04:00:07.144Z,100937.50
2022-12-24T04:02:39.515Z,100930.44
2022-12-24T04:05:08.657Z,100929.63
2022-12-24T04:07:36.171Z,100929.56
2022-12-24T04:10:03.920Z,100931.28
2022-12-24T04:12:31.345Z,100926.94
2022-12-24T04:14:58.839Z,100930.41
2022-12-24T04:17:26.323Z,100927.78
2022-12-24T04:19:54.838Z,100931.28
2022-12-24T04:22:22.432Z,100919.94
2022-12-24T04:24:49.971Z,100932.13
2022-12-24T04:27:17.713Z,100933.00
2022-12-24T04:29:45.200Z,100926.84
2022-12-24T04:32:12.693Z,100925.16
2022-12-24T04:34:40.330Z,100932.13
2022-12-24T04:37:07.762Z,100925.22
2022-12-24T04:39:35.318Z,100924.41
2022-12-24T04:42:02.654Z,100914.75
2022-12-24T04:44:30.044Z,100921.78
2022-12-24T04:46:57.519Z,100924.34
2022-12-24T04:49:25.059Z,100918.28
2022-12-24T04:51:52.442Z,100915.66
2022-12-24T04:54:19.938Z,100907.75
2022-12-24T04:56:47.236Z,100902.50
2022-12-24T04:59:14.714Z,100902.53
2022-12-24T05:01:42.238Z,100909.50
2022-12-24T05:04:11.279Z,100909.59
2022-12-24T05:06:38.769Z,100902.63
2022-12-24T05:09:06.439Z,100901.72
2022-12-24T05:11:33.907Z,100909.50
2022-12-24T05:14:01.432Z,100910.44
2022-12-24T05:16:28.892Z,100915.66
2022-12-24T05:18:56.475Z,100912.09
2022-12-24T05:21:24.737Z,100913.88
2022-12-24T05:24:11.372Z,100914.75
2022-12-24T05:26:46.477Z,100910.44
2022-12-24T05:29:14.290Z,100913.03
2022-12-24T05:31:43.524Z,100912.19
2022-12-24T05:34:12.137Z,100913.84
2022-12-24T05:36:39.777Z,100893.00
2022-12-24T05:39:13.423Z,100893.00
2022-12-24T05:41:45.777Z,100883.34
2022-12-24T05:44:14.565Z,100892.03
2022-12-24T05:46:42.575Z,100888.56
2022-12-24T05:49:10.263Z,100887.69
2022-12-24T05:51:38.294Z,100888.53
2022-12-24T05:54:06.341Z,100885.91
2022-12-24T05:56:34.227Z,100882.44
2022-12-24T05:59:01.615Z,100881.56
2022-12-24T06:01:29.263Z,100880.69
2022-12-24T06:03:57.518Z,100878.09
2022-12-24T06:06:27.468Z,100884.22
2022-12-24T06:08:55.843Z,100886.81
2022-12-24T06:11:27.415Z,100877.28
2022-12-24T06:13:55.522Z,100880.78
2022-12-24T06:16:24.275Z,100883.41
2022-12-24T06:18:52.436Z,100887.78
2022-12-24T06:21:19.960Z,100877.28
2022-12-24T06:23:48.315Z,100877.28
2022-12-24T06:26:19.525Z,100877.28
2022-12-24T06:28:48.036Z,100880.78
2022-12-24T06:31:18.144Z,100881.63
2022-12-24T06:33:45.949Z,100878.06
2022-12-24T06:36:19.515Z,100882.44
2022-12-24T06:38:48.628Z,100881.59
2022-12-24T06:41:17.261Z,100885.06
2022-12-24T06:43:46.376Z,100878.09
2022-12-24T06:46:14.945Z,100876.41
2022-12-24T06:48:47.031Z,100878.09
2022-12-24T06:51:16.667Z,100884.06
2022-12-24T06:53:44.114Z,100883.31
2022-12-24T06:56:13.535Z,100892.03
2022-12-24T06:58:41.748Z,100896.34
2022-12-24T07:01:13.935Z,100890.28
2022-12-24T07:03:42.309Z,100897.13
2022-12-24T07:06:20.253Z,100885.88
2022-12-24T07:08:47.882Z,100886.75
2022-12-24T07:11:15.452Z,100885.75
2022-12-24T07:13:42.919Z,100895.38
2022-12-24T07:16:10.489Z,100884.03
2022-12-24T07:18:38.214Z,100896.31
2022-12-24T07:21:06.410Z,100893.63
2022-12-24T07:23:34.941Z,100895.47
2022-12-24T07:26:06.570Z,100898.84
2022-12-24T07:28:34.333Z,100898.84
2022-12-24T07:31:02.005Z,100898.97
2022-12-24T07:33:29.791Z,100903.22
2022-12-24T07:36:06.342Z,100911.06
2022-12-24T07:38:34.760Z,100914.56
2022-12-24T07:41:02.561Z,100913.69
2022-12-24T07:43:30.090Z,100925.03
2022-12-24T07:45:58.392Z,100916.41
2022-12-24T07:48:27.453Z,100920.69
2022-12-24T07:50:56.841Z,100928.53
2022-12-24T07:53:25.715Z,100926.00
2022-12-24T07:55:53.458Z,100926.03
2022-12-24T07:58:21.224Z,100928.66
2022-12-24T08:00:48.681Z,100934.00
2022-12-24T08:03:20.987Z,100925.19
2022-12-24T08:05:49.423Z,100930.41
2022-12-24T08:08:16.892Z,100922.53
2022-12-24T08:10:45.863Z,100920.78
2022-12-24T08:13:14.372Z,100923.41
2022-12-24T08:15:42.253Z,100925.16
2022-12-24T08:18:10.765Z,100926.03
2022-12-24T08:20:40.317Z,100924.31
2022-12-24T08:23:11.273Z,100940.91
2022-12-24T08:25:46.613Z,100934.78
2022-12-24T08:28:19.271Z,100937.41
2022-12-24T08:30:49.773Z,100937.41
2022-12-24T08:33:17.945Z,100936.56
2022-12-24T08:35:54.469Z,100934.81
2022-12-24T08:38:22.696Z,100937.41
2022-12-24T08:40:50.420Z,100941.00
2022-12-24T08:43:19.171Z,100947.13
2022-12-24T08:45:49.304Z,100945.38
2022-12-24T08:48:17.485Z,100947.97
2022-12-24T08:50:45.475Z,100947.13
2022-12-24T08:53:13.444Z,100946.34
2022-12-24T08:55:40.877Z,100950.63
2022-12-24T08:58:08.362Z,100952.38
2022-12-24T09:00:36.187Z,100947.13
2022-12-24T09:03:04.064Z,100959.38
2022-12-24T09:05:31.784Z,100961.13
2022-12-24T09:07:59.268Z,100966.41
2022-12-24T09:10:26.720Z,100972.50
2022-12-24T09:12:54.212Z,100970.75
2022-12-24T09:15:21.995Z,100970.72
2022-12-24T09:17:49.584Z,100976.88
2022-12-24T09:20:17.086Z,100978.63
2022-12-24T09:22:44.649Z,100977.75
2022-12-24T09:25:12.071Z,100986.50
2022-12-24T09:27:39.662Z,100979.50
2022-12-24T09:30:09.434Z,100976.88
2022-12-24T09:32:37.336Z,100986.53
2022-12-24T09:35:05.439Z,100980.44
2022-12-24T09:37:32.873Z,100972.56
2022-12-24T09:40:00.112Z,100969.09
2022-12-24T09:42:51.666Z,100972.56
2022-12-24T09:45:33.605Z,100977.81
2022-12-24T09:48:16.840Z,100970.88
2022-12-24T09:50:56.829Z,100974.38
2022-12-24T09:53:53.711Z,100975.25
2022-12-24T09:56:26.845Z,100978.81
2022-12-24T09:58:56.968Z,100977.91
2022-12-24T10:01:25.085Z,100984.00
2022-12-24T10:03:52.654Z,100995.41
2022-12-24T10:06:29.026Z,100988.38
2022-12-24T10:09:20.936Z,100984.88
2022-12-24T10:12:05.035Z,100992.75
2022-12-24T10:15:00.977Z,100987.50
2022-12-24T10:17:43.899Z,100996.28
2022-12-24T10:20:43.384Z,100990.16
2022-12-24T10:23:36.354Z,100983.13
2022-12-24T10:26:23.947Z,100984.88
2022-12-24T10:29:00.848Z,100977.03
2022-12-24T10:31:39.868Z,100985.81
2022-12-24T10:34:22.912Z,100972.66
2022-12-24T10:36:51.126Z,100972.72
2022-12-24T10:39:24.534Z,100970.97
2022-12-24T10:41:57.811Z,100974.41
2022-12-24T10:44:30.765Z,100982.31
2022-12-24T10:46:59.637Z,100980.56
2022-12-24T10:49:54.048Z,100982.31
2022-12-24T10:52:26.004Z,100977.94
2022-12-24T10:55:27.639Z,100976.19
2022-12-24T10:58:21.336Z,100972.66
2022-12-24T11:00:51.826Z,100971.78
2022-12-24T11:03:19.343Z,100970.09
2022-12-24T11:05:46.973Z,100970.97
2022-12-24T11:08:14.343Z,100960.47
2022-12-24T11:10:53.956Z,100952.63
2022-12-24T11:13:39.286Z,100951.69
2022-12-24T11:16:30.147Z,100963.97
2022-12-24T11:19:04.594Z,100964.91
2022-12-24T11:21:39.732Z,100969.25
2022-12-24T11:24:13.327Z,100960.53
2022-12-24T11:26:42.958Z,100964.03
2022-12-24T11:29:19.839Z,100967.50
2022-12-24T11:31:48.922Z,100969.22
2022-12-24T11:34:28.812Z,100963.16
2022-12-24T11:37:18.799Z,100965.78
2022-12-24T11:39:54.159Z,100959.66
2022-12-24T11:42:31.557Z,100960.50
2022-12-24T11:45:01.809Z,100961.38
2022-12-24T11:47:35.170Z,100955.25
2022-12-24T11:50:35.466Z,100950.88
2022-12-24T11:53:02.885Z,100948.28
2022-12-24T11:55:40.983Z,100943.91
2022-12-24T11:58:39.802Z,100946.56
2022-12-24T12:01:17.674Z,100936.94
2022-12-24T12:04:07.151Z,100929.97
2022-12-24T12:06:49.317Z,100931.69
2022-12-24T12:09:32.206Z,100936.06
2022-12-24T12:12:11.813Z,100934.31
2022-12-24T12:14:45.212Z,100920.31
2022-12-24T12:17:37.573Z,100929.09
2022-12-24T12:20:25.468Z,100935.19
2022-12-24T12:23:24.953Z,100931.66
2022-12-24T12:25:57.397Z,100932.56
2022-12-24T12:29:15.809Z,100932.56
2022-12-24T12:31:49.742Z,100922.16
2022-12-24T12:34:35.187Z,100924.78
2022-12-24T12:37:15.436Z,100924.78
2022-12-24T12:39:43.245Z,100924.72
2022-12-24T12:42:32.464Z,100923.88
2022-12-24T12:45:06.490Z,100921.28
2022-12-24T12:47:40.250Z,100916.00
2022-12-24T12:50:37.654Z,100916.91
2022-12-24T12:53:29.512Z,100915.16
2022-12-24T12:56:14.474Z,100912.53
2022-12-24T12:58:50.007Z,100911.66
2022-12-24T13:01:33.231Z,100905.53
2022-12-24T13:04:30.370Z,100916.03
2022-12-24T13:07:37.863Z,100908.13
2022-12-24T13:10:45.961Z,100913.38
2022-12-24T13:13:40.206Z,100909.00
2022-12-24T13:16:07.668Z,100902.00
2022-12-24T13:18:48.866Z,100899.38
2022-12-24T13:21:20.461Z,100899.38
2022-12-24T13:23:49.273Z,100902.00
2022-12-24T13:26:17.802Z,100894.13
2022-12-24T13:28:45.360Z,100895.88
2022-12-24T13:31:25.075Z,100893.25
2022-12-24T13:33:54.524Z,100895.00
2022-12-24T13:36:22.834Z,100902.88
2022-12-24T13:38:57.395Z,100899.38
2022-12-24T13:41:39.571Z,100902.00
2022-12-24T13:44:13.240Z,100902.88
2022-12-24T13:47:02.887Z,100903.75
2022-12-24T13:49:35.235Z,100904.63
2022-12-24T13:52:11.793Z,100900.25
2022-12-24T13:54:43.383Z,100895.00
2022-12-24T13:57:35.939Z,100891.50
2022-12-24T14:00:13.321Z,100884.50
2022-12-24T14:02:58.979Z,100883.66
2022-12-24T14:05:31.333Z,100890.63
2022-12-24T14:08:01.822Z,100882.75
2022-12-24T14:11:01.771Z,100875.75
2022-12-24T14:13:38.361Z,100883.63
2022-12-24T14:16:28.768Z,100890.59
2022-12-24T14:19:23.585Z,100888.88
2022-12-24T14:21:54.288Z,100896.75
2022-12-24T14:24:58.826Z,100899.38
2022-12-24T14:27:33.810Z,100889.72
2022-12-24T14:30:09.830Z,100888.00
2022-12-24T14:32:43.381Z,100888.88
2022-12-24T14:35:16.535Z,100899.38
2022-12-24T14:37:57.253Z,100905.50
2022-12-24T14:40:33.040Z,100910.72
2022-12-24T14:43:31.553Z,100915.97
2022-12-24T14:46:37.787Z,100907.25
2022-12-24T14:49:46.809Z,100909.00
2022-12-24T14:52:38.058Z,100902.88
2022-12-24T14:55:31.038Z,100904.63
2022-12-24T14:58:24.825Z,100905.47
2022-12-24T15:00:56.011Z,100898.47
2022-12-24T15:03:26.523Z,100884.50
2022-12-24T15:06:00.868Z,100890.59
2022-12-24T15:08:36.804Z,100886.25
2022-12-24T15:11:08.892Z,100894.97
2022-12-24T15:13:39.644Z,100894.09
2022-12-24T15:16:12.875Z,100885.31
2022-12-24T15:18:46.307Z,100891.47
2022-12-24T15:21:25.004Z,100894.06
2022-12-24T15:23:53.072Z,100891.44
2022-12-24T15:26:24.470Z,100899.28
2022-12-24T15:29:01.970Z,100900.16
2022-12-24T15:31:31.385Z,100893.19
2022-12-24T15:34:00.307Z,100896.66
2022-12-24T15:36:32.753Z,100903.63
2022-12-24T15:39:07.495Z,100900.16
2022-12-24T15:42:01.589Z,100902.78
2022-12-24T15:44:35.263Z,100901.03
2022-12-24T15:47:07.167Z,100915.00
2022-12-24T15:49:35.372Z,100911.50
2022-12-24T15:52:08.264Z,100912.38
2022-12-24T15:54:36.318Z,100908.00
2022-12-24T15:57:33.997Z,100908.84
2022-12-24T16:00:04.375Z,100915.88
2022-12-24T16:02:43.425Z,100909.78
2022-12-24T16:05:22.496Z,100928.09
2022-12-24T16:08:14.821Z,100931.53
2022-12-24T16:11:28.503Z,100921.94
2022-12-24T16:14:01.428Z,100926.28
2022-12-24T16:16:36.034Z,100928.03
2022-12-24T16:19:06.194Z,100922.78
2022-12-24T16:21:41.348Z,100924.53
2022-12-24T16:24:19.164Z,100928.03
2022-12-24T16:26:48.235Z,100927.13
2022-12-24T16:29:19.509Z,100916.69
2022-12-24T16:31:58.743Z,100907.94
2022-12-24T16:34:31.648Z,100908.00
2022-12-24T16:37:00.243Z,100890.56
2022-12-24T16:39:35.293Z,100885.25
2022-12-24T16:42:22.741Z,100887.06
2022-12-24T16:44:53.211Z,100876.50
2022-12-24T16:47:24.155Z,100877.38
2022-12-24T16:49:52.313Z,100876.50
2022-12-24T16:52:26.418Z,100889.53
2022-12-24T16:54:54.075Z,100887.84
2022-12-24T16:57:23.540Z,100895.66
2022-12-24T16:59:52.183Z,100895.63
2022-12-24T17:02:24.322Z,100893.88
2022-12-24T17:04:52.615Z,100898.22
2022-12-24T17:07:21.388Z,100893.88
2022-12-24T17:09:49.024Z,100897.34
2022-12-24T17:12:16.568Z,100894.72
2022-12-24T17:14:44.102Z,100899.91
2022-12-24T17:17:25.083Z,100896.47
2022-12-24T17:19:52.623Z,100897.38
2022-12-24T17:22:20.304Z,100903.50
2022-12-24T17:24:47.921Z,100909.66
2022-12-24T17:27:16.401Z,100910.50
2022-12-24T17:29:44.163Z,100924.41
2022-12-24T17:32:11.776Z,100921.78
2022-12-24T17:34:39.615Z,100921.78
2022-12-24T17:37:07.049Z,100918.28
2022-12-24T17:39:34.623Z,100923.47
2022-12-24T17:42:02.095Z,100920.84
2022-12-24T17:44:29.785Z,100920.91
2022-12-24T17:46:57.322Z,100926.09
2022-12-24T17:49:25.052Z,100924.41
2022-12-24T17:51:52.641Z,100920.09
2022-12-24T17:54:20.084Z,100926.16
2022-12-24T17:56:47.502Z,100933.13
2022-12-24T17:59:15.015Z,100937.50
2022-12-24T18:01:42.683Z,100939.25
2022-12-24T18:04:11.065Z,100934.00
2022-12-24T18:06:47.252Z,100930.50
2022-12-24T18:09:16.900Z,100924.41
2022-12-24T18:11:44.515Z,100928.69
2022-12-24T18:14:14.173Z,100919.13
2022-12-24T18:16:42.729Z,100920.91
2022-12-24T18:19:12.876Z,100922.66
2022-12-24T18:21:40.750Z,100920.03
2022-12-24T18:24:09.346Z,100924.41
2022-12-24T18:26:36.981Z,100919.94
2022-12-24T18:29:05.817Z,100933.13
2022-12-24T18:31:34.090Z,100922.59
2022-12-24T18:34:04.385Z,100936.53
2022-12-24T18:36:32.052Z,100927.81
2022-12-24T18:39:00.062Z,100926.09
2022-12-24T18:41:29.617Z,100928.75
2022-12-24T18:43:58.277Z,100932.19
2022-12-24T18:46:28.104Z,100931.31
2022-12-24T18:48:57.419Z,100915.66
2022-12-24T18:51:27.041Z,100903.47
2022-12-24T18:53:54.532Z,100887.69
2022-12-24T18:56:25.109Z,100888.56
2022-12-24T18:58:57.416Z,100885.03
2022-12-24T19:01:28.243Z,100894.63
2022-12-24T19:03:56.074Z,100891.88
2022-12-24T19:06:24.470Z,100893.59
2022-12-24T19:08:57.900Z,100896.25
2022-12-24T19:11:27.982Z,100894.50
2022-12-24T19:13:55.730Z,100895.41
2022-12-24T19:16:23.241Z,100889.38
2022-12-24T19:18:50.728Z,100878.97
2022-12-24T19:21:18.768Z,100886.88
2022-12-24T19:23:46.936Z,100901.66
2022-12-24T19:26:16.712Z,100905.97
2022-12-24T19:28:44.874Z,100897.25
2022-12-24T19:31:15.726Z,100880.78
2022-12-24T19:33:48.752Z,100885.94
2022-12-24T19:36:22.620Z,100887.63
2022-12-24T19:38:52.216Z,100895.50
2022-12-24T19:41:22.502Z,100892.03
2022-12-24T19:43:52.535Z,100884.19
2022-12-24T19:46:24.635Z,100889.41
2022-12-24T19:48:55.315Z,100890.38
2022-12-24T19:51:23.707Z,100888.63
2022-12-24T19:53:52.461Z,100879.84
2022-12-24T19:56:21.789Z,100862.47
2022-12-24T19:58:51.890Z,100859.78
2022-12-24T20:01:22.470Z,100853.72
2022-12-24T20:03:51.937Z,100862.38
2022-12-24T20:06:22.282Z,100853.63
2022-12-24T20:08:50.479Z,100850.16
2022-12-24T20:11:20.733Z,100850.16
2022-12-24T20:13:48.866Z,100849.28
2022-12-24T20:16:19.124Z,100838.81
2022-12-24T20:18:55.066Z,100841.41
2022-12-24T20:21:25.653Z,100844.03
2022-12-24T20:23:53.938Z,100836.19
2022-12-24T20:26:24.567Z,100837.91
2022-12-24T20:28:52.669Z,100837.06
2022-12-24T20:31:28.780Z,100841.44
2022-12-24T20:33:58.665Z,100843.19
2022-12-24T20:36:27.467Z,100855.47
2022-12-24T20:38:55.273Z,100863.28
2022-12-24T20:41:24.203Z,100879.84
2022-12-24T20:43:54.720Z,100871.13
2022-12-24T20:46:24.125Z,100873.72
2022-12-24T20:48:52.307Z,100871.97
2022-12-24T20:51:24.920Z,100875.44
2022-12-24T20:53:59.795Z,100874.59
2022-12-24T20:56:28.248Z,100886.78
2022-12-24T20:58:55.712Z,100881.53
2022-12-24T21:01:28.829Z,100881.44
2022-12-24T21:04:00.380Z,100881.41
2022-12-24T21:06:27.973Z,100888.41
2022-12-24T21:08:55.499Z,100878.81
2022-12-24T21:11:41.880Z,100866.72
2022-12-24T21:14:10.055Z,100851.78
2022-12-24T21:16:38.506Z,100863.13
2022-12-24T21:19:07.895Z,100862.25
2022-12-24T21:21:36.720Z,100855.25
2022-12-24T21:24:06.202Z,100851.75
2022-12-24T21:26:33.941Z,100862.22
2022-12-24T21:29:04.532Z,100868.31
2022-12-24T21:31:32.509Z,100866.59
2022-12-24T21:34:05.908Z,100856.13
2022-12-24T21:36:33.393Z,100860.44
2022-12-24T21:39:00.842Z,100864.72
2022-12-24T21:41:28.222Z,100862.16
2022-12-24T21:43:55.529Z,100863.94
2022-12-24T21:46:25.433Z,100870.91
2022-12-24T21:49:12.815Z,100869.19
2022-12-24T21:51:41.779Z,100865.72
2022-12-24T21:54:28.735Z,100862.19
2022-12-24T21:57:16.524Z,100862.19
2022-12-24T21:59:44.870Z,100863.06
2022-12-24T22:02:17.031Z,100863.06
2022-12-24T22:04:44.893Z,100857.78
2022-12-24T22:07:39.070Z,100857.81
2022-12-24T22:10:26.567Z,100849.97
2022-12-24T22:12:55.135Z,100831.72
2022-12-24T22:15:22.717Z,100823.00
2022-12-24T22:17:50.407Z,100801.19
2022-12-24T22:20:18.021Z,100807.28
2022-12-24T22:22:47.047Z,100801.22
2022-12-24T22:25:14.683Z,100798.47
2022-12-24T22:27:42.122Z,100794.97
2022-12-24T22:30:13.579Z,100784.47
2022-12-24T22:32:41.510Z,100781.97
2022-12-24T22:35:09.279Z,100788.91
2022-12-24T22:37:36.761Z,100806.28
2022-12-24T22:40:04.643Z,100802.75
2022-12-24T22:42:33.537Z,100821.81
2022-12-24T22:45:01.669Z,100828.69
2022-12-24T22:47:29.486Z,100824.28
2022-12-24T22:49:56.950Z,100829.53
2022-12-24T22:52:25.056Z,100824.41
2022-12-24T22:54:52.810Z,100826.13
2022-12-24T22:57:20.639Z,100837.47
2022-12-24T22:59:49.393Z,100847.03
2022-12-24T23:02:25.698Z,100845.31
2022-12-24T23:04:55.417Z,100844.44
2022-12-24T23:07:22.956Z,100846.22
2022-12-24T23:09:50.709Z,100829.69
2022-12-24T23:12:38.054Z,100821.00
2022-12-24T23:15:06.393Z,100824.56
2022-12-24T23:17:33.833Z,100832.44
2022-12-24T23:20:02.679Z,100820.22
2022-12-24T23:22:30.277Z,100816.75
2022-12-24T23:24:57.823Z,100802.03
2022-12-24T23:27:25.350Z,100805.50
2022-12-24T23:29:54.451Z,100806.41
2022-12-24T23:32:23.428Z,100803.78
2022-12-24T23:34:50.990Z,100800.22
2022-12-24T23:37:18.535Z,100807.19
2022-12-24T23:39:45.963Z,100807.19
2022-12-24T23:42:13.203Z,100797.69
2022-12-24T23:44:40.879Z,100796.84
2022-12-24T23:47:08.453Z,100794.19
2022-12-24T23:49:36.816Z,100805.53
2022-12-24T23:52:04.452Z,100803.78
2022-12-24T23:54:31.968Z,100798.56
2022-12-24T23:56:59.395Z,100796.81
2022-12-24T23:59:26.775Z,100793.31
